Nearby METAR Reports

 

KSJC - San Jose, California, USA
Distance from station: NE 9mi, 14km
Updated: Tue, 20-Nov-2018 1:53pm CST
Haze, Overcast
Haze, Overcast
 Wind from calm
Wind: Calm
Temperature: 63°F , 17°C
Dew Point: 36°F , 2°C
Humidity: 37%
Barometer: 30.01 inHg , 1016.3 hPa
Summary: Haze
Clouds: Overcast
Visibility: 5 miles , 8 km
Cloud details: Few Clouds 100 ft
Partly cloudy 1000 ft
Overcast 2600 ft
2018/11/20 19:53 KSJC 201953Z 00000KT 5SM HZ FEW001 SCT010 OVC026 17/02 A3001 RMK AO2 SLP163 FU FEW001 FU SCT010 FU OVC026 T01720017
KNUQ - Moffett Nas/Mtn, California, USA
Distance from station: N 9mi, 14km
Updated: Tue, 20-Nov-2018 1:56pm CST
Haze, Clear
Haze, Clear
 Wind from N
Wind: N 5 mph , 7 km/h
Temperature: 61°F , 16°C
Dew Point: 41°F , 5°C
Humidity: 48%
Barometer: 30.02 inHg , 1016.6 hPa
Summary: Haze
Clouds: Clear
Visibility: 3 miles , 5 km
2018/11/20 19:56 KNUQ 201956Z 36004KT 3SM HZ CLR 16/05 A3002 RMK AO2 SLP168 T01560050
 
KPAO - Palo Alto, California, USA
Distance from station: NNW 14mi, 23km
Updated: Tue, 20-Nov-2018 1:47pm CST
Smoke, Haze, Clear
Smoke, Haze, Clear
 Wind from varies
Wind: varies 6 mph , 9 km/h
Temperature: 59°F , 15°C
Dew Point: 43°F , 6°C
Humidity: 55%
Barometer: 30.03 inHg , 1016.9 hPa
Summary: Smoke, Haze
Clouds: Clear
Visibility: 3 miles , 5 km
2018/11/20 19:47 KPAO 201947Z VRB05KT 3SM FU HZ SKC 15/06 A3003
KRHV - San Jose/Reid, California, USA
Distance from station: ENE 12mi, 19km
Updated: Tue, 20-Nov-2018 1:47pm CST
Smoke, Clear
Smoke, Clear
 Wind from calm
Wind: Calm
Temperature: 66°F , 19°C
Dew Point: 37°F , 3°C
Humidity: 35%
Barometer: 30.00 inHg , 1015.9 hPa
Summary: Smoke
Clouds: Clear
Visibility: 5 miles , 8 km
2018/11/20 19:47 KRHV 201947Z 00000KT 5SM FU SKC 19/03 A3000
 
KOAK - Oakland, California, USA
Distance from station: NNW 31mi, 50km
Updated: Tue, 20-Nov-2018 1:53pm CST
Haze, Smoke, Mostly cloudy
Haze, Smoke, Mostly cloudy
 Wind from SW
Wind: SW 5 mph , 7 km/h
Temperature: 57°F , 14°C
Dew Point: 45°F , 7°C
Humidity: 63%
Barometer: 30.02 inHg , 1016.6 hPa
Summary: Haze, Smoke
Clouds: Mostly cloudy
Visibility: 3 miles , 5 km
Cloud details: Few Clouds 1800 ft
Mostly cloudy 20000 ft
2018/11/20 19:53 KOAK 201953Z 22004KT 3SM HZ FU FEW018 BKN200 14/07 A3002 RMK AO2 SLP166 FU FEW018 T01390072
KSQL - San Carlos Airpo, California, USA
Distance from station: NW 21mi, 34km
Updated: Tue, 20-Nov-2018 1:50pm CST
Smoke, Haze, Clear
Smoke, Haze, Clear
 Wind from varies
Wind: varies 6 mph , 9 km/h
Temperature: 59°F , 15°C
Dew Point: 45°F , 7°C
Humidity: 59%
Barometer: 30.02 inHg , 1016.6 hPa
Summary: Smoke, Haze
Clouds: Clear
Visibility: 2 miles , 3 km
2018/11/20 19:50 KSQL 201950Z VRB05KT 2SM FU HZ SKC 15/07 A3002
 
KSFO - San Francisco, California, USA
Distance from station: NW 30mi, 49km
Updated: Tue, 20-Nov-2018 1:56pm CST
Haze, Smoke, Mostly cloudy
Haze, Smoke, Mostly cloudy
 Wind from NNE
Wind: NNE 5 mph , 7 km/h
Temperature: 59°F , 15°C
Dew Point: 46°F , 8°C
Humidity: 63%
Barometer: 30.01 inHg , 1016.3 hPa
Summary: Haze, Smoke
Clouds: Mostly cloudy
Visibility: 4 miles , 6 km
Cloud details: Few Clouds 400 ft
Mostly cloudy 18000 ft
2018/11/20 19:56 KSFO 201956Z 03004KT 4SM HZ FU FEW004 BKN180 15/08 A3001 RMK AO2 SLP162 T01500083 $
KE16 - San Martin, California, USA
Distance from station: ESE 27mi, 43km
Updated: Tue, 20-Nov-2018 2:10pm CST
Haze, Clear
Haze, Clear
 Wind from calm
Wind: Calm
Temperature: 63°F , 17°C
Dew Point: 36°F , 2°C
Humidity: 37%
Barometer: 30.03 inHg , 1016.9 hPa
Summary: Haze
Clouds: Clear
Visibility: 5 miles , 8 km
2018/11/20 20:10 KE16 202010Z AUTO 00000KT 5SM HZ CLR 17/02 A3003 RMK AO2
 
KWVI - Watsonville, California, USA
Distance from station: SSE 27mi, 44km
Updated: Tue, 20-Nov-2018 1:53pm CST
Clear
Clear
 Wind from varies
Wind: varies 5 mph , 7 km/h
Temperature: 64°F , 18°C
Dew Point: 48°F , 9°C
Humidity: 56%
Barometer: 30.02 inHg , 1016.6 hPa
Clouds: Clear
Visibility: 8 miles , 13 km
2018/11/20 19:53 KWVI 201953Z AUTO VRB04KT 8SM CLR 18/09 A3002 RMK AO2 SLP165 T01830089
KHAF - Half Moon Bay, California, USA
Distance from station: WNW 31mi, 50km
Updated: Tue, 20-Nov-2018 2:15pm CST
Clear
Clear
 Wind from SSW
Wind: SSW 7 mph , 11 km/h
Temperature: 63°F , 17°C
Dew Point: 54°F , 12°C
Humidity: 73%
Barometer: 30.02 inHg , 1016.6 hPa
Clouds: Clear
Visibility: 8 miles , 13 km
2018/11/20 20:15 KHAF 202015Z AUTO 20006KT 8SM CLR 17/12 A3002 RMK AO2
 
KHWD - Hayward, California, USA
Distance from station: N 28mi, 44km
Updated: Tue, 20-Nov-2018 2:09pm CST
Haze, Smoke, Clear
Haze, Smoke, Clear
 Wind from calm
Wind: Calm
Temperature: 64°F , 18°C
Dew Point: 43°F , 6°C
Humidity: 46%
Barometer: 30.01 inHg , 1016.3 hPa
Summary: Haze, Smoke
Clouds: Clear
Visibility: 2 1/2 miles , 4 km
2018/11/20 20:09 KHWD 202009Z 00000KT 2 1/2SM HZ FU CLR 18/06 A3001 RMK AO2 T01780056
KLVK - Livermore, California, USA
Distance from station: NNE 31mi, 51km
Updated: Tue, 20-Nov-2018 1:53pm CST
Haze, Smoke, Clear
Haze, Smoke, Clear
 Wind from varies
Wind: varies 3 mph , 6 km/h
Temperature: 61°F , 16°C
Dew Point: 32°F , 0°C
Humidity: 34%
Barometer: 30.01 inHg , 1016.3 hPa
Summary: Haze, Smoke
Clouds: Clear
Visibility: 3 miles , 5 km
2018/11/20 19:53 KLVK 201953Z VRB03KT 3SM HZ FU CLR 16/00 A3001 RMK AO2 SLP162 T01610000